sensor_id;sensor_type;location;lat;lon;timestamp;temperature;humidity
55064;DHT22;40963;52.168;21.296;2024-01-30T00:01:22;1.80;99.90
55064;DHT22;40963;52.168;21.296;2024-01-30T00:03:47;1.80;99.90
55064;DHT22;40963;52.168;21.296;2024-01-30T00:06:13;1.80;99.90
55064;DHT22;40963;52.168;21.296;2024-01-30T00:08:38;1.80;99.90
55064;DHT22;40963;52.168;21.296;2024-01-30T00:11:04;1.80;99.90
55064;DHT22;40963;52.168;21.296;2024-01-30T00:13:36;1.80;99.90
55064;DHT22;40963;52.168;21.296;2024-01-30T00:16:01;1.80;99.90
55064;DHT22;40963;52.168;21.296;2024-01-30T00:18:27;1.90;99.90
55064;DHT22;40963;52.168;21.296;2024-01-30T00:20:52;1.90;99.90
55064;DHT22;40963;52.168;21.296;2024-01-30T00:23:18;1.90;99.90
55064;DHT22;40963;52.168;21.296;2024-01-30T00:25:43;1.90;99.90
55064;DHT22;40963;52.168;21.296;2024-01-30T00:28:09;1.90;99.90
55064;DHT22;40963;52.168;21.296;2024-01-30T00:30:34;1.90;99.90
55064;DHT22;40963;52.168;21.296;2024-01-30T00:33:00;1.90;99.90
55064;DHT22;40963;52.168;21.296;2024-01-30T00:35:25;1.90;99.90
55064;DHT22;40963;52.168;21.296;2024-01-30T00:37:52;1.90;99.90
55064;DHT22;40963;52.168;21.296;2024-01-30T00:40:17;1.90;99.90
55064;DHT22;40963;52.168;21.296;2024-01-30T00:42:43;1.80;99.90
55064;DHT22;40963;52.168;21.296;2024-01-30T00:45:16;1.80;99.90
55064;DHT22;40963;52.168;21.296;2024-01-30T00:47:42;1.80;99.90
55064;DHT22;40963;52.168;21.296;2024-01-30T00:50:08;1.80;99.90
55064;DHT22;40963;52.168;21.296;2024-01-30T00:52:34;1.80;99.90
55064;DHT22;40963;52.168;21.296;2024-01-30T00:55:00;1.80;99.90
55064;DHT22;40963;52.168;21.296;2024-01-30T00:57:26;1.80;99.90
55064;DHT22;40963;52.168;21.296;2024-01-30T00:59:52;1.80;99.90
55064;DHT22;40963;52.168;21.296;2024-01-30T01:02:18;1.70;99.90
55064;DHT22;40963;52.168;21.296;2024-01-30T01:04:44;1.70;99.90
55064;DHT22;40963;52.168;21.296;2024-01-30T01:07:10;1.70;99.90
55064;DHT22;40963;52.168;21.296;2024-01-30T01:09:36;1.70;99.90
55064;DHT22;40963;52.168;21.296;2024-01-30T01:12:02;1.60;99.90
55064;DHT22;40963;52.168;21.296;2024-01-30T01:14:27;1.70;99.90
55064;DHT22;40963;52.168;21.296;2024-01-30T01:16:53;1.60;99.90
55064;DHT22;40963;52.168;21.296;2024-01-30T01:19:18;1.60;99.90
55064;DHT22;40963;52.168;21.296;2024-01-30T01:21:44;1.60;99.90
55064;DHT22;40963;52.168;21.296;2024-01-30T01:24:10;1.60;99.90
55064;DHT22;40963;52.168;21.296;2024-01-30T01:26:35;1.60;99.90
55064;DHT22;40963;52.168;21.296;2024-01-30T01:29:01;1.50;99.90
55064;DHT22;40963;52.168;21.296;2024-01-30T01:31:26;1.50;99.90
55064;DHT22;40963;52.168;21.296;2024-01-30T01:33:55;1.50;99.90
55064;DHT22;40963;52.168;21.296;2024-01-30T01:36:20;1.50;99.90
55064;DHT22;40963;52.168;21.296;2024-01-30T01:38:46;1.50;99.90
55064;DHT22;40963;52.168;21.296;2024-01-30T01:41:12;1.40;99.90
55064;DHT22;40963;52.168;21.296;2024-01-30T01:43:37;1.40;99.90
55064;DHT22;40963;52.168;21.296;2024-01-30T01:46:06;1.40;99.90
55064;DHT22;40963;52.168;21.296;2024-01-30T01:48:32;1.40;99.90
55064;DHT22;40963;52.168;21.296;2024-01-30T01:50:59;1.40;99.90
55064;DHT22;40963;52.168;21.296;2024-01-30T01:53:26;1.40;99.90
55064;DHT22;40963;52.168;21.296;2024-01-30T01:55:51;1.40;99.90
55064;DHT22;40963;52.168;21.296;2024-01-30T01:58:20;1.40;99.90
55064;DHT22;40963;52.168;21.296;2024-01-30T02:00:47;1.30;99.90
55064;DHT22;40963;52.168;21.296;2024-01-30T02:03:13;1.30;99.90
55064;DHT22;40963;52.168;21.296;2024-01-30T02:05:40;1.20;99.90
55064;DHT22;40963;52.168;21.296;2024-01-30T02:08:06;1.30;99.90
55064;DHT22;40963;52.168;21.296;2024-01-30T02:10:34;1.20;99.90
55064;DHT22;40963;52.168;21.296;2024-01-30T02:12:59;1.20;99.90
55064;DHT22;40963;52.168;21.296;2024-01-30T02:15:25;1.20;99.90
55064;DHT22;40963;52.168;21.296;2024-01-30T02:17:51;1.10;99.90
55064;DHT22;40963;52.168;21.296;2024-01-30T02:20:17;1.10;99.90
55064;DHT22;40963;52.168;21.296;2024-01-30T02:22:42;1.10;99.90
55064;DHT22;40963;52.168;21.296;2024-01-30T02:25:08;1.10;99.90
55064;DHT22;40963;52.168;21.296;2024-01-30T02:27:34;1.00;99.90
55064;DHT22;40963;52.168;21.296;2024-01-30T02:29:59;1.00;99.90
55064;DHT22;40963;52.168;21.296;2024-01-30T02:32:25;1.00;99.90
55064;DHT22;40963;52.168;21.296;2024-01-30T02:34:50;0.90;99.90
55064;DHT22;40963;52.168;21.296;2024-01-30T02:37:16;0.90;99.90
55064;DHT22;40963;52.168;21.296;2024-01-30T02:39:42;0.90;99.90
55064;DHT22;40963;52.168;21.296;2024-01-30T02:42:08;0.90;99.90
55064;DHT22;40963;52.168;21.296;2024-01-30T02:44:33;0.90;99.90
55064;DHT22;40963;52.168;21.296;2024-01-30T02:46:59;0.80;99.90
55064;DHT22;40963;52.168;21.296;2024-01-30T02:49:24;0.80;99.90
55064;DHT22;40963;52.168;21.296;2024-01-30T02:51:51;0.80;99.90
55064;DHT22;40963;52.168;21.296;2024-01-30T02:54:17;0.80;99.90
55064;DHT22;40963;52.168;21.296;2024-01-30T02:56:42;0.70;99.90
55064;DHT22;40963;52.168;21.296;2024-01-30T02:59:08;0.70;99.90
55064;DHT22;40963;52.168;21.296;2024-01-30T03:01:33;0.70;99.90
55064;DHT22;40963;52.168;21.296;2024-01-30T03:04:07;0.70;99.90
55064;DHT22;40963;52.168;21.296;2024-01-30T03:06:32;0.70;99.90
55064;DHT22;40963;52.168;21.296;2024-01-30T03:08:58;0.70;99.90
55064;DHT22;40963;52.168;21.296;2024-01-30T03:11:24;0.60;99.90
55064;DHT22;40963;52.168;21.296;2024-01-30T03:13:49;0.60;99.90
55064;DHT22;40963;52.168;21.296;2024-01-30T03:16:15;0.60;99.90
55064;DHT22;40963;52.168;21.296;2024-01-30T03:18:40;0.60;99.90
55064;DHT22;40963;52.168;21.296;2024-01-30T03:21:06;0.60;99.90
55064;DHT22;40963;52.168;21.296;2024-01-30T03:23:31;0.60;99.90
55064;DHT22;40963;52.168;21.296;2024-01-30T03:25:57;0.60;99.90
55064;DHT22;40963;52.168;21.296;2024-01-30T03:28:23;0.60;99.90
55064;DHT22;40963;52.168;21.296;2024-01-30T03:30:49;0.60;99.90
55064;DHT22;40963;52.168;21.296;2024-01-30T03:33:14;0.60;99.90
55064;DHT22;40963;52.168;21.296;2024-01-30T03:35:40;0.60;99.90
55064;DHT22;40963;52.168;21.296;2024-01-30T03:38:05;0.60;99.90
55064;DHT22;40963;52.168;21.296;2024-01-30T03:40:31;0.60;99.90
55064;DHT22;40963;52.168;21.296;2024-01-30T03:42:56;0.50;99.90
55064;DHT22;40963;52.168;21.296;2024-01-30T03:45:22;0.50;99.90
55064;DHT22;40963;52.168;21.296;2024-01-30T03:47:47;0.60;99.90
55064;DHT22;40963;52.168;21.296;2024-01-30T03:50:13;0.60;99.90
55064;DHT22;40963;52.168;21.296;2024-01-30T03:52:39;0.60;99.90
55064;DHT22;40963;52.168;21.296;2024-01-30T03:55:05;0.60;99.90
55064;DHT22;40963;52.168;21.296;2024-01-30T03:57:30;0.50;99.90
55064;DHT22;40963;52.168;21.296;2024-01-30T03:59:56;0.60;99.90
55064;DHT22;40963;52.168;21.296;2024-01-30T04:02:21;0.60;99.90
55064;DHT22;40963;52.168;21.296;2024-01-30T04:04:47;0.60;99.90
55064;DHT22;40963;52.168;21.296;2024-01-30T04:07:12;0.60;99.90
55064;DHT22;40963;52.168;21.296;2024-01-30T04:09:38;0.60;99.90
55064;DHT22;40963;52.168;21.296;2024-01-30T04:12:04;0.60;99.90
55064;DHT22;40963;52.168;21.296;2024-01-30T04:14:29;0.60;99.90
55064;DHT22;40963;52.168;21.296;2024-01-30T04:16:55;0.60;99.90
55064;DHT22;40963;52.168;21.296;2024-01-30T04:19:21;0.60;99.90
55064;DHT22;40963;52.168;21.296;2024-01-30T04:21:46;0.60;99.90
55064;DHT22;40963;52.168;21.296;2024-01-30T04:24:12;0.60;99.90
55064;DHT22;40963;52.168;21.296;2024-01-30T04:26:37;0.60;99.90
55064;DHT22;40963;52.168;21.296;2024-01-30T04:29:03;0.60;99.90
55064;DHT22;40963;52.168;21.296;2024-01-30T04:31:28;0.60;99.90
55064;DHT22;40963;52.168;21.296;2024-01-30T04:33:54;0.60;99.90
55064;DHT22;40963;52.168;21.296;2024-01-30T04:36:19;0.60;99.90
55064;DHT22;40963;52.168;21.296;2024-01-30T04:38:45;0.50;99.90
55064;DHT22;40963;52.168;21.296;2024-01-30T04:41:11;0.50;99.90
55064;DHT22;40963;52.168;21.296;2024-01-30T04:43:36;0.50;99.90
55064;DHT22;40963;52.168;21.296;2024-01-30T04:46:02;0.50;99.90
55064;DHT22;40963;52.168;21.296;2024-01-30T04:48:27;0.50;99.90
55064;DHT22;40963;52.168;21.296;2024-01-30T04:50:53;0.50;99.90
55064;DHT22;40963;52.168;21.296;2024-01-30T04:53:19;0.50;99.90
55064;DHT22;40963;52.168;21.296;2024-01-30T04:55:44;0.40;99.90
55064;DHT22;40963;52.168;21.296;2024-01-30T04:58:10;0.40;99.90
55064;DHT22;40963;52.168;21.296;2024-01-30T05:00:35;0.40;99.90
55064;DHT22;40963;52.168;21.296;2024-01-30T05:03:01;0.40;99.90
55064;DHT22;40963;52.168;21.296;2024-01-30T05:05:26;0.40;99.90
55064;DHT22;40963;52.168;21.296;2024-01-30T05:07:52;0.40;99.90
55064;DHT22;40963;52.168;21.296;2024-01-30T05:10:17;0.40;99.90
55064;DHT22;40963;52.168;21.296;2024-01-30T05:12:43;0.40;99.90
55064;DHT22;40963;52.168;21.296;2024-01-30T05:15:09;0.40;99.90
55064;DHT22;40963;52.168;21.296;2024-01-30T05:17:35;0.30;99.90
55064;DHT22;40963;52.168;21.296;2024-01-30T05:20:00;0.30;99.90
55064;DHT22;40963;52.168;21.296;2024-01-30T05:22:26;0.30;99.90
55064;DHT22;40963;52.168;21.296;2024-01-30T05:24:51;0.30;99.90
55064;DHT22;40963;52.168;21.296;2024-01-30T05:27:17;0.30;99.90
55064;DHT22;40963;52.168;21.296;2024-01-30T05:29:42;0.30;99.90
55064;DHT22;40963;52.168;21.296;2024-01-30T05:32:08;0.30;99.90
55064;DHT22;40963;52.168;21.296;2024-01-30T05:34:34;0.30;99.90
55064;DHT22;40963;52.168;21.296;2024-01-30T05:37:00;0.30;99.90
55064;DHT22;40963;52.168;21.296;2024-01-30T05:39:26;0.20;99.90
55064;DHT22;40963;52.168;21.296;2024-01-30T05:41:52;0.30;99.90
55064;DHT22;40963;52.168;21.296;2024-01-30T05:44:17;0.30;99.90
55064;DHT22;40963;52.168;21.296;2024-01-30T05:46:43;0.30;99.90
55064;DHT22;40963;52.168;21.296;2024-01-30T05:49:08;0.30;99.90
55064;DHT22;40963;52.168;21.296;2024-01-30T05:51:34;0.30;99.90
55064;DHT22;40963;52.168;21.296;2024-01-30T05:54:00;0.30;99.90
55064;DHT22;40963;52.168;21.296;2024-01-30T05:56:28;0.30;99.90
55064;DHT22;40963;52.168;21.296;2024-01-30T05:58:54;0.30;99.90
55064;DHT22;40963;52.168;21.296;2024-01-30T06:01:20;0.30;99.90
55064;DHT22;40963;52.168;21.296;2024-01-30T06:03:46;0.30;99.90
55064;DHT22;40963;52.168;21.296;2024-01-30T06:06:11;0.20;99.90
55064;DHT22;40963;52.168;21.296;2024-01-30T06:08:37;0.20;99.90
55064;DHT22;40963;52.168;21.296;2024-01-30T06:11:02;0.30;99.90
55064;DHT22;40963;52.168;21.296;2024-01-30T06:13:28;0.30;99.90
55064;DHT22;40963;52.168;21.296;2024-01-30T06:15:57;0.20;99.90
55064;DHT22;40963;52.168;21.296;2024-01-30T06:18:22;0.20;99.90
55064;DHT22;40963;52.168;21.296;2024-01-30T06:20:48;0.20;99.90
55064;DHT22;40963;52.168;21.296;2024-01-30T06:23:13;0.20;99.90
55064;DHT22;40963;52.168;21.296;2024-01-30T06:25:40;0.20;99.90
55064;DHT22;40963;52.168;21.296;2024-01-30T06:28:05;0.20;99.90
55064;DHT22;40963;52.168;21.296;2024-01-30T06:30:31;0.20;99.90
55064;DHT22;40963;52.168;21.296;2024-01-30T06:32:56;0.30;99.90
55064;DHT22;40963;52.168;21.296;2024-01-30T06:35:22;0.30;99.90
55064;DHT22;40963;52.168;21.296;2024-01-30T06:37:48;0.30;99.90
55064;DHT22;40963;52.168;21.296;2024-01-30T06:40:13;0.30;99.90
55064;DHT22;40963;52.168;21.296;2024-01-30T06:42:39;0.30;99.90
55064;DHT22;40963;52.168;21.296;2024-01-30T06:45:05;0.30;99.90
55064;DHT22;40963;52.168;21.296;2024-01-30T06:47:31;0.30;99.90
55064;DHT22;40963;52.168;21.296;2024-01-30T06:49:57;0.40;99.90
55064;DHT22;40963;52.168;21.296;2024-01-30T06:52:23;0.40;99.90
55064;DHT22;40963;52.168;21.296;2024-01-30T06:54:48;0.40;99.90
55064;DHT22;40963;52.168;21.296;2024-01-30T06:57:14;0.40;99.90
55064;DHT22;40963;52.168;21.296;2024-01-30T06:59:39;0.50;99.90
55064;DHT22;40963;52.168;21.296;2024-01-30T07:02:10;0.50;99.90
55064;DHT22;40963;52.168;21.296;2024-01-30T07:04:36;0.60;99.90
55064;DHT22;40963;52.168;21.296;2024-01-30T07:07:03;0.60;99.90
55064;DHT22;40963;52.168;21.296;2024-01-30T07:09:30;0.60;99.90
55064;DHT22;40963;52.168;21.296;2024-01-30T07:11:56;0.70;99.90
55064;DHT22;40963;52.168;21.296;2024-01-30T07:14:24;0.70;99.90
55064;DHT22;40963;52.168;21.296;2024-01-30T07:16:49;0.80;99.90
55064;DHT22;40963;52.168;21.296;2024-01-30T07:19:15;0.80;99.90
55064;DHT22;40963;52.168;21.296;2024-01-30T07:21:41;0.90;99.90
55064;DHT22;40963;52.168;21.296;2024-01-30T07:24:07;0.90;99.90
55064;DHT22;40963;52.168;21.296;2024-01-30T07:26:32;1.00;99.90
55064;DHT22;40963;52.168;21.296;2024-01-30T07:28:58;1.00;99.90
55064;DHT22;40963;52.168;21.296;2024-01-30T07:31:23;1.10;99.90
55064;DHT22;40963;52.168;21.296;2024-01-30T07:33:49;1.10;99.90
55064;DHT22;40963;52.168;21.296;2024-01-30T07:36:14;1.20;99.90
55064;DHT22;40963;52.168;21.296;2024-01-30T07:38:40;1.20;99.90
55064;DHT22;40963;52.168;21.296;2024-01-30T07:41:06;1.30;99.90
55064;DHT22;40963;52.168;21.296;2024-01-30T07:43:31;1.40;99.90
55064;DHT22;40963;52.168;21.296;2024-01-30T07:45:57;1.50;99.90
55064;DHT22;40963;52.168;21.296;2024-01-30T07:48:22;1.50;99.90
55064;DHT22;40963;52.168;21.296;2024-01-30T07:50:48;1.60;99.90
55064;DHT22;40963;52.168;21.296;2024-01-30T07:53:14;1.70;99.90
55064;DHT22;40963;52.168;21.296;2024-01-30T07:55:39;1.80;99.90
55064;DHT22;40963;52.168;21.296;2024-01-30T07:58:05;1.90;99.90
55064;DHT22;40963;52.168;21.296;2024-01-30T08:00:30;1.90;99.90
55064;DHT22;40963;52.168;21.296;2024-01-30T08:02:56;2.00;99.90
55064;DHT22;40963;52.168;21.296;2024-01-30T08:05:22;2.10;99.90
55064;DHT22;40963;52.168;21.296;2024-01-30T08:07:50;2.20;99.90
55064;DHT22;40963;52.168;21.296;2024-01-30T08:10:15;2.30;99.90
55064;DHT22;40963;52.168;21.296;2024-01-30T08:12:43;2.30;99.90
55064;DHT22;40963;52.168;21.296;2024-01-30T08:15:09;2.40;99.90
55064;DHT22;40963;52.168;21.296;2024-01-30T08:17:34;2.40;99.90
55064;DHT22;40963;52.168;21.296;2024-01-30T08:20:00;2.50;99.90
55064;DHT22;40963;52.168;21.296;2024-01-30T08:22:25;2.60;99.90
55064;DHT22;40963;52.168;21.296;2024-01-30T08:24:51;2.60;99.90
55064;DHT22;40963;52.168;21.296;2024-01-30T08:27:17;2.70;99.90
55064;DHT22;40963;52.168;21.296;2024-01-30T08:29:42;2.80;99.90
55064;DHT22;40963;52.168;21.296;2024-01-30T08:32:08;2.90;99.90
55064;DHT22;40963;52.168;21.296;2024-01-30T08:34:33;3.00;99.90
55064;DHT22;40963;52.168;21.296;2024-01-30T08:36:59;3.10;99.90
55064;DHT22;40963;52.168;21.296;2024-01-30T08:39:24;3.20;99.90
55064;DHT22;40963;52.168;21.296;2024-01-30T08:41:50;3.20;99.90
55064;DHT22;40963;52.168;21.296;2024-01-30T08:44:16;3.30;99.90
55064;DHT22;40963;52.168;21.296;2024-01-30T08:46:43;3.30;99.90
55064;DHT22;40963;52.168;21.296;2024-01-30T08:49:08;3.40;99.90
55064;DHT22;40963;52.168;21.296;2024-01-30T08:51:34;3.50;99.90
55064;DHT22;40963;52.168;21.296;2024-01-30T08:53:59;3.60;99.90
55064;DHT22;40963;52.168;21.296;2024-01-30T08:56:25;3.60;99.90
55064;DHT22;40963;52.168;21.296;2024-01-30T08:58:51;3.70;99.90
55064;DHT22;40963;52.168;21.296;2024-01-30T09:01:17;3.70;99.30
55064;DHT22;40963;52.168;21.296;2024-01-30T09:03:42;3.80;99.10
55064;DHT22;40963;52.168;21.296;2024-01-30T09:06:11;3.90;98.90
55064;DHT22;40963;52.168;21.296;2024-01-30T09:08:37;4.00;99.00
55064;DHT22;40963;52.168;21.296;2024-01-30T09:11:21;4.10;97.50
55064;DHT22;40963;52.168;21.296;2024-01-30T09:13:46;4.20;96.90
55064;DHT22;40963;52.168;21.296;2024-01-30T09:16:12;4.20;95.70
55064;DHT22;40963;52.168;21.296;2024-01-30T09:18:38;4.30;95.10
55064;DHT22;40963;52.168;21.296;2024-01-30T09:21:03;4.30;94.60
55064;DHT22;40963;52.168;21.296;2024-01-30T09:23:29;4.30;94.50
55064;DHT22;40963;52.168;21.296;2024-01-30T09:25:55;4.40;94.20
55064;DHT22;40963;52.168;21.296;2024-01-30T09:28:20;4.50;93.70
55064;DHT22;40963;52.168;21.296;2024-01-30T09:30:46;4.60;93.50
55064;DHT22;40963;52.168;21.296;2024-01-30T09:33:12;4.60;92.90
55064;DHT22;40963;52.168;21.296;2024-01-30T09:35:37;4.60;92.20
55064;DHT22;40963;52.168;21.296;2024-01-30T09:38:03;4.60;92.10
55064;DHT22;40963;52.168;21.296;2024-01-30T09:40:29;4.70;92.10
55064;DHT22;40963;52.168;21.296;2024-01-30T09:42:55;4.70;91.70
55064;DHT22;40963;52.168;21.296;2024-01-30T09:45:24;4.80;91.30
55064;DHT22;40963;52.168;21.296;2024-01-30T09:47:51;4.80;91.20
55064;DHT22;40963;52.168;21.296;2024-01-30T09:50:17;4.90;90.90
55064;DHT22;40963;52.168;21.296;2024-01-30T09:52:45;5.00;90.80
55064;DHT22;40963;52.168;21.296;2024-01-30T09:55:12;5.10;90.60
55064;DHT22;40963;52.168;21.296;2024-01-30T09:57:38;5.20;90.50
55064;DHT22;40963;52.168;21.296;2024-01-30T10:00:05;5.20;90.00
55064;DHT22;40963;52.168;21.296;2024-01-30T10:02:33;5.20;89.10
55064;DHT22;40963;52.168;21.296;2024-01-30T10:04:59;5.30;89.50
55064;DHT22;40963;52.168;21.296;2024-01-30T10:07:25;5.40;89.50
55064;DHT22;40963;52.168;21.296;2024-01-30T10:09:51;5.50;88.70
55064;DHT22;40963;52.168;21.296;2024-01-30T10:12:18;5.60;88.30
55064;DHT22;40963;52.168;21.296;2024-01-30T10:14:44;5.70;88.00
55064;DHT22;40963;52.168;21.296;2024-01-30T10:17:10;5.70;87.50
55064;DHT22;40963;52.168;21.296;2024-01-30T10:19:39;5.80;87.00
55064;DHT22;40963;52.168;21.296;2024-01-30T10:22:04;5.90;85.30
55064;DHT22;40963;52.168;21.296;2024-01-30T10:24:30;5.90;84.20
55064;DHT22;40963;52.168;21.296;2024-01-30T10:26:57;5.90;84.20
55064;DHT22;40963;52.168;21.296;2024-01-30T10:29:22;6.00;83.70
55064;DHT22;40963;52.168;21.296;2024-01-30T10:32:08;6.00;83.20
55064;DHT22;40963;52.168;21.296;2024-01-30T10:34:34;6.10;83.10
55064;DHT22;40963;52.168;21.296;2024-01-30T10:37:05;6.20;82.30
55064;DHT22;40963;52.168;21.296;2024-01-30T10:39:35;6.30;81.90
55064;DHT22;40963;52.168;21.296;2024-01-30T10:42:04;6.40;81.80
55064;DHT22;40963;52.168;21.296;2024-01-30T10:44:37;6.50;81.70
55064;DHT22;40963;52.168;21.296;2024-01-30T10:47:06;6.60;80.90
55064;DHT22;40963;52.168;21.296;2024-01-30T10:49:36;6.60;79.60
55064;DHT22;40963;52.168;21.296;2024-01-30T10:52:04;6.60;79.80
55064;DHT22;40963;52.168;21.296;2024-01-30T10:54:31;6.70;79.60
55064;DHT22;40963;52.168;21.296;2024-01-30T10:56:59;6.80;79.60
55064;DHT22;40963;52.168;21.296;2024-01-30T10:59:27;7.00;79.30
55064;DHT22;40963;52.168;21.296;2024-01-30T11:01:53;7.00;78.30
55064;DHT22;40963;52.168;21.296;2024-01-30T11:04:19;7.00;77.90
55064;DHT22;40963;52.168;21.296;2024-01-30T11:06:49;7.00;76.80
55064;DHT22;40963;52.168;21.296;2024-01-30T11:09:17;7.00;76.80
55064;DHT22;40963;52.168;21.296;2024-01-30T11:11:58;7.10;76.90
55064;DHT22;40963;52.168;21.296;2024-01-30T11:14:26;7.20;76.50
55064;DHT22;40963;52.168;21.296;2024-01-30T11:16:52;7.20;76.20
55064;DHT22;40963;52.168;21.296;2024-01-30T11:19:23;7.20;75.80
55064;DHT22;40963;52.168;21.296;2024-01-30T11:21:54;7.30;75.60
55064;DHT22;40963;52.168;21.296;2024-01-30T11:24:22;7.30;75.50
55064;DHT22;40963;52.168;21.296;2024-01-30T11:26:49;7.40;75.20
55064;DHT22;40963;52.168;21.296;2024-01-30T11:29:17;7.40;74.50
55064;DHT22;40963;52.168;21.296;2024-01-30T11:31:57;7.50;74.10
55064;DHT22;40963;52.168;21.296;2024-01-30T11:34:23;7.50;73.30
55064;DHT22;40963;52.168;21.296;2024-01-30T11:36:56;7.50;73.60
55064;DHT22;40963;52.168;21.296;2024-01-30T11:39:26;7.50;73.70
55064;DHT22;40963;52.168;21.296;2024-01-30T11:41:52;7.60;73.30
55064;DHT22;40963;52.168;21.296;2024-01-30T11:44:22;7.70;73.10
55064;DHT22;40963;52.168;21.296;2024-01-30T11:46:48;7.70;72.70
55064;DHT22;40963;52.168;21.296;2024-01-30T11:49:14;7.80;73.20
55064;DHT22;40963;52.168;21.296;2024-01-30T11:51:40;7.90;73.10
55064;DHT22;40963;52.168;21.296;2024-01-30T11:54:07;8.00;72.80
55064;DHT22;40963;52.168;21.296;2024-01-30T11:56:32;8.10;72.50
55064;DHT22;40963;52.168;21.296;2024-01-30T11:58:58;8.10;72.20
55064;DHT22;40963;52.168;21.296;2024-01-30T12:01:26;8.20;72.10
55064;DHT22;40963;52.168;21.296;2024-01-30T12:03:51;8.20;72.00
55064;DHT22;40963;52.168;21.296;2024-01-30T12:06:17;8.20;70.80
55064;DHT22;40963;52.168;21.296;2024-01-30T12:08:43;8.20;70.00
55064;DHT22;40963;52.168;21.296;2024-01-30T12:11:19;8.20;70.40
55064;DHT22;40963;52.168;21.296;2024-01-30T12:13:45;8.20;71.20
55064;DHT22;40963;52.168;21.296;2024-01-30T12:16:10;8.30;70.80
55064;DHT22;40963;52.168;21.296;2024-01-30T12:18:36;8.40;70.60
55064;DHT22;40963;52.168;21.296;2024-01-30T12:21:02;8.50;70.20
55064;DHT22;40963;52.168;21.296;2024-01-30T12:23:28;8.50;70.00
55064;DHT22;40963;52.168;21.296;2024-01-30T12:25:54;8.50;69.80
55064;DHT22;40963;52.168;21.296;2024-01-30T12:28:20;8.50;69.70
55064;DHT22;40963;52.168;21.296;2024-01-30T12:30:46;8.60;69.10
55064;DHT22;40963;52.168;21.296;2024-01-30T12:33:18;8.50;68.40
55064;DHT22;40963;52.168;21.296;2024-01-30T12:35:47;8.50;68.10
55064;DHT22;40963;52.168;21.296;2024-01-30T12:38:15;8.50;68.30
55064;DHT22;40963;52.168;21.296;2024-01-30T12:40:41;8.50;68.30
55064;DHT22;40963;52.168;21.296;2024-01-30T12:43:06;8.50;68.20
55064;DHT22;40963;52.168;21.296;2024-01-30T12:45:32;8.50;68.20
55064;DHT22;40963;52.168;21.296;2024-01-30T12:47:58;8.60;68.00
55064;DHT22;40963;52.168;21.296;2024-01-30T12:50:23;8.50;67.80
55064;DHT22;40963;52.168;21.296;2024-01-30T12:52:49;8.50;68.00
55064;DHT22;40963;52.168;21.296;2024-01-30T12:55:15;8.50;68.10
55064;DHT22;40963;52.168;21.296;2024-01-30T12:57:40;8.60;68.10
55064;DHT22;40963;52.168;21.296;2024-01-30T13:00:07;8.50;68.20
55064;DHT22;40963;52.168;21.296;2024-01-30T13:02:36;8.60;68.40
55064;DHT22;40963;52.168;21.296;2024-01-30T13:05:03;8.50;68.40
55064;DHT22;40963;52.168;21.296;2024-01-30T13:07:29;8.50;68.20
55064;DHT22;40963;52.168;21.296;2024-01-30T13:09:54;8.50;68.20
55064;DHT22;40963;52.168;21.296;2024-01-30T13:12:20;8.50;68.20
55064;DHT22;40963;52.168;21.296;2024-01-30T13:14:46;8.50;68.30
55064;DHT22;40963;52.168;21.296;2024-01-30T13:17:11;8.50;68.20
55064;DHT22;40963;52.168;21.296;2024-01-30T13:19:37;8.50;68.30
55064;DHT22;40963;52.168;21.296;2024-01-30T13:22:02;8.50;68.10
55064;DHT22;40963;52.168;21.296;2024-01-30T13:24:28;8.50;68.00
55064;DHT22;40963;52.168;21.296;2024-01-30T13:26:54;8.50;68.10
55064;DHT22;40963;52.168;21.296;2024-01-30T13:29:20;8.50;68.00
55064;DHT22;40963;52.168;21.296;2024-01-30T13:31:45;8.50;68.20
55064;DHT22;40963;52.168;21.296;2024-01-30T13:34:12;8.50;68.00
55064;DHT22;40963;52.168;21.296;2024-01-30T13:36:39;8.50;67.90
55064;DHT22;40963;52.168;21.296;2024-01-30T13:39:05;8.50;67.80
55064;DHT22;40963;52.168;21.296;2024-01-30T13:41:36;8.50;67.70
55064;DHT22;40963;52.168;21.296;2024-01-30T13:44:01;8.50;67.90
55064;DHT22;40963;52.168;21.296;2024-01-30T13:46:29;8.40;67.50
55064;DHT22;40963;52.168;21.296;2024-01-30T13:48:54;8.40;67.40
55064;DHT22;40963;52.168;21.296;2024-01-30T13:51:20;8.40;67.70
55064;DHT22;40963;52.168;21.296;2024-01-30T13:53:46;8.40;67.80
55064;DHT22;40963;52.168;21.296;2024-01-30T13:56:11;8.30;67.70
55064;DHT22;40963;52.168;21.296;2024-01-30T13:58:37;8.30;67.80
55064;DHT22;40963;52.168;21.296;2024-01-30T14:01:03;8.30;67.80
55064;DHT22;40963;52.168;21.296;2024-01-30T14:03:29;8.30;67.90
55064;DHT22;40963;52.168;21.296;2024-01-30T14:05:54;8.30;67.80
55064;DHT22;40963;52.168;21.296;2024-01-30T14:08:20;8.30;67.90
55064;DHT22;40963;52.168;21.296;2024-01-30T14:10:49;8.30;67.70
55064;DHT22;40963;52.168;21.296;2024-01-30T14:13:14;8.30;67.70
55064;DHT22;40963;52.168;21.296;2024-01-30T14:15:40;8.20;68.20
55064;DHT22;40963;52.168;21.296;2024-01-30T14:18:06;8.20;67.70
55064;DHT22;40963;52.168;21.296;2024-01-30T14:20:33;8.20;67.80
55064;DHT22;40963;52.168;21.296;2024-01-30T14:22:59;8.10;67.90
55064;DHT22;40963;52.168;21.296;2024-01-30T14:25:24;8.00;68.00
55064;DHT22;40963;52.168;21.296;2024-01-30T14:27:51;8.10;68.20
55064;DHT22;40963;52.168;21.296;2024-01-30T14:30:17;8.00;68.20
55064;DHT22;40963;52.168;21.296;2024-01-30T14:32:43;8.00;68.40
55064;DHT22;40963;52.168;21.296;2024-01-30T14:35:10;7.90;68.40
55064;DHT22;40963;52.168;21.296;2024-01-30T14:37:37;7.90;68.50
55064;DHT22;40963;52.168;21.296;2024-01-30T14:40:03;7.80;68.60
55064;DHT22;40963;52.168;21.296;2024-01-30T14:42:29;7.80;68.70
55064;DHT22;40963;52.168;21.296;2024-01-30T14:44:57;7.70;68.90
55064;DHT22;40963;52.168;21.296;2024-01-30T14:47:23;7.70;69.00
55064;DHT22;40963;52.168;21.296;2024-01-30T14:49:48;7.60;69.10
55064;DHT22;40963;52.168;21.296;2024-01-30T14:52:14;7.50;69.30
55064;DHT22;40963;52.168;21.296;2024-01-30T14:54:43;7.50;69.50
55064;DHT22;40963;52.168;21.296;2024-01-30T14:57:09;7.40;69.60
55064;DHT22;40963;52.168;21.296;2024-01-30T14:59:35;7.40;69.80
55064;DHT22;40963;52.168;21.296;2024-01-30T15:02:01;7.30;69.90
55064;DHT22;40963;52.168;21.296;2024-01-30T15:04:26;7.20;70.10
55064;DHT22;40963;52.168;21.296;2024-01-30T15:06:52;7.20;70.30
55064;DHT22;40963;52.168;21.296;2024-01-30T15:09:19;7.10;70.60
55064;DHT22;40963;52.168;21.296;2024-01-30T15:11:46;7.00;70.80
55064;DHT22;40963;52.168;21.296;2024-01-30T15:14:12;6.90;70.90
55064;DHT22;40963;52.168;21.296;2024-01-30T15:16:38;6.90;71.20
55064;DHT22;40963;52.168;21.296;2024-01-30T15:19:04;6.80;71.30
55064;DHT22;40963;52.168;21.296;2024-01-30T15:21:30;6.70;71.40
55064;DHT22;40963;52.168;21.296;2024-01-30T15:23:56;6.60;71.80